Largo — PFNC — position and weather

sailwx.info

Track history (hours):
 
Tides and Currents Weather Stations Pressure Air Temp Water Temp Dewpoint Dewpoint Depression Visibility Wind Speed Wind Dir Waves Ship Positions

Largo

Last reported at 2015-May-06 18:18 UTC. Time now 2015-May-07 06:38 UTC.
Position N 37°51' E 003°34'.

Length 91 m; draft 6.5 m.

Type: Cargo ship. MMSI: 245645000.

Date/timePositionNaut miles runAvg speedWind from/ knotsBaromVisibWave heightAir tempDewpointWater temp
2015-May-06 18:18N 37°51' E 003°34'6 8.1
2015-May-06 17:33N 37°55' E 003°28'8 8.0
2015-May-06 16:30N 38°01' E 003°20'19 8.1
2015-May-06 14:12N 38°13' E 003°03'7 8.1
2015-May-06 13:22N 38°18' E 002°56'8 8.4
2015-May-06 12:27N 38°22' E 002°48'8 8.6
2015-May-06 11:33N 38°27' E 002°41'20 9.0
2015-May-06 09:17N 38°41' E 002°22'7 9.4
2015-May-06 08:30N 38°46' E 002°15'9 9.3
2015-May-06 07:32N 38°52' E 002°06'9 9.4
2015-May-06 06:32N 38°58' E 001°57'9 9.1
2015-May-06 05:33N 39°04' E 001°48'9 9.1
2015-May-06 04:32N 39°10' E 001°39'9 9.3
2015-May-06 03:33N 39°15' E 001°29'10 9.5
2015-May-06 02:32N 39°20' E 001°19'9 9.0
2015-May-06 01:33N 39°25' E 001°09'61 1.4
2015-May-04 04:33N 39°57' E 000°02'2 2.0
2015-May-04 03:32N 39°58' E 000°04'0 0.0
2015-May-04 01:32N 39°58' E 000°04'23 2.0
2015-May-03 14:07N 39°36' E 000°14'3010.7
2015-May-03 11:17N 39°07' E 000°25'40 7.8
2015-May-03 06:07N 38°29' E 000°40'5 8.9
2015-May-03 05:31N 38°23' E 000°42'9 9.2
2015-May-03 04:31N 38°14' E 000°45'10 9.6
2015-May-03 03:30N 38°05' E 000°48'1010.2
2015-May-03 02:34N 37°56' E 000°51'1010.2
2015-May-03 01:33N 37°46' E 000°54'1010.2
2015-May-03 00:32N 37°36' E 000°57'1010.0
2015-May-02 23:32N 37°26' E 001°01'10 9.9
2015-May-02 22:33N 37°17' E 001°04'1010.1
2015-May-02 21:33N 37°07' E 001°07'10 9.7
2015-May-02 20:32N 36°58' E 001°10'1010.0
2015-May-02 19:33N 36°48' E 001°14'1010.1
2015-May-02 18:33N 36°38' E 001°16'7 0.4
2015-May-02 01:30N 36°31' E 001°19'0 0.0
2015-May-01 23:30N 36°31' E 001°19'0 0.0
2015-May-01 22:30N 36°31' E 001°19'0 0.0
2015-May-01 21:25N 36°31' E 001°19'0 0.0
2015-May-01 20:31N 36°31' E 001°19'0 0.0
2015-May-01 18:25N 36°31' E 001°19'0 0.0
2015-May-01 17:19N 36°31' E 001°19'0 0.0
2015-May-01 16:25N 36°31' E 001°19'0 0.0
2015-May-01 15:31N 36°31' E 001°19'0 0.0
2015-May-01 14:24N 36°31' E 001°19'0 0.0
2015-May-01 13:24N 36°31' E 001°19'0 0.0
2015-May-01 12:30N 36°31' E 001°19'0 0.0
2015-May-01 11:24N 36°31' E 001°19'0 0.0
2015-May-01 10:30N 36°31' E 001°19'0 0.1
2015-May-01 09:25N 36°32' E 001°19'0 0.0
2015-May-01 08:31N 36°32' E 001°19'0 0.0
2015-May-01 07:31N 36°32' E 001°19'0 0.0
2015-May-01 06:25N 36°32' E 001°19'0 0.0
2015-May-01 05:31N 36°32' E 001°19'0 0.0
2015-May-01 04:19N 36°32' E 001°19'0 0.0
2015-May-01 03:18N 36°32' E 001°19'0 0.0
2015-May-01 02:18N 36°32' E 001°19'0 0.0
2015-May-01 01:18N 36°32' E 001°19'0 0.0
2015-Apr-30 23:18N 36°32' E 001°19'0 0.0
2015-Apr-30 19:19N 36°32' E 001°19'0 0.0
2015-Apr-30 18:31N 36°32' E 001°19'0 0.0
2015-Apr-30 17:19N 36°32' E 001°19'0 0.0
2015-Apr-30 16:25N 36°32' E 001°19'0 0.0
2015-Apr-30 15:12N 36°32' E 001°19'0 0.0
2015-Apr-30 14:24N 36°32' E 001°19'1 0.1
2015-Apr-30 00:17N 36°31' E 001°18'0 0.0
2015-Apr-29 22:29N 36°31' E 001°18'0 0.0
2015-Apr-29 21:23N 36°31' E 001°18'0 0.0
2015-Apr-29 20:29N 36°31' E 001°18'0 0.0
2015-Apr-29 19:11N 36°31' E 001°18'0 0.0
2015-Apr-29 18:29N 36°31' E 001°18'0 0.0
2015-Apr-29 17:30N 36°31' E 001°18'0 0.0
2015-Apr-29 16:11N 36°31' E 001°18'3 4.7
2015-Apr-29 15:33N 36°34' E 001°17'1010.0
2015-Apr-29 14:33N 36°44' E 001°13'10 9.7
2015-Apr-29 13:33N 36°53' E 001°09'10 9.5
2015-Apr-29 12:33N 37°02' E 001°07'2210.4
2015-Apr-29 10:29N 37°23' E 000°60'9 9.4
2015-Apr-29 09:31N 37°32' E 000°57'28 9.5
2015-Apr-29 06:31N 37°59' E 000°47'12 9.9
2015-Apr-29 05:17N 38°11' E 000°43'27 9.4
2015-Apr-29 02:24N 38°37' E 000°33'  
Track history (hours):
 
Tides and Currents Weather Stations Pressure Air Temp Water Temp Dewpoint Dewpoint Depression Visibility Wind Speed Wind Dir Waves Ship Positions

Largo

Last reported at 2015-May-06 18:18 UTC. Time now 2015-May-07 06:38 UTC.
Position N 37°51' E 003°34'.

Length 91 m; draft 6.5 m.

Type: Cargo ship. MMSI: 245645000.

Date/timePositionNaut miles runAvg speedWind from/ knotsBaromVisibWave heightAir tempDewpointWater temp
2015-May-06 18:18N 37°51' E 003°34'6 8.1
2015-May-06 17:33N 37°55' E 003°28'8 8.0
2015-May-06 16:30N 38°01' E 003°20'19 8.1
2015-May-06 14:12N 38°13' E 003°03'7 8.1
2015-May-06 13:22N 38°18' E 002°56'8 8.4
2015-May-06 12:27N 38°22' E 002°48'8 8.6
2015-May-06 11:33N 38°27' E 002°41'20 9.0
2015-May-06 09:17N 38°41' E 002°22'7 9.4
2015-May-06 08:30N 38°46' E 002°15'9 9.3
2015-May-06 07:32N 38°52' E 002°06'9 9.4
2015-May-06 06:32N 38°58' E 001°57'9 9.1
2015-May-06 05:33N 39°04' E 001°48'9 9.1
2015-May-06 04:32N 39°10' E 001°39'9 9.3
2015-May-06 03:33N 39°15' E 001°29'10 9.5
2015-May-06 02:32N 39°20' E 001°19'9 9.0
2015-May-06 01:33N 39°25' E 001°09'61 1.4
2015-May-04 04:33N 39°57' E 000°02'2 2.0
2015-May-04 03:32N 39°58' E 000°04'0 0.0
2015-May-04 01:32N 39°58' E 000°04'23 2.0
2015-May-03 14:07N 39°36' E 000°14'3010.7
2015-May-03 11:17N 39°07' E 000°25'40 7.8
2015-May-03 06:07N 38°29' E 000°40'5 8.9
2015-May-03 05:31N 38°23' E 000°42'9 9.2
2015-May-03 04:31N 38°14' E 000°45'10 9.6
2015-May-03 03:30N 38°05' E 000°48'1010.2
2015-May-03 02:34N 37°56' E 000°51'1010.2
2015-May-03 01:33N 37°46' E 000°54'1010.2
2015-May-03 00:32N 37°36' E 000°57'1010.0
2015-May-02 23:32N 37°26' E 001°01'10 9.9
2015-May-02 22:33N 37°17' E 001°04'1010.1
2015-May-02 21:33N 37°07' E 001°07'10 9.7
2015-May-02 20:32N 36°58' E 001°10'1010.0
2015-May-02 19:33N 36°48' E 001°14'1010.1
2015-May-02 18:33N 36°38' E 001°16'7 0.4
2015-May-02 01:30N 36°31' E 001°19'0 0.0
2015-May-01 23:30N 36°31' E 001°19'0 0.0
2015-May-01 22:30N 36°31' E 001°19'0 0.0
2015-May-01 21:25N 36°31' E 001°19'0 0.0
2015-May-01 20:31N 36°31' E 001°19'0 0.0
2015-May-01 18:25N 36°31' E 001°19'0 0.0
2015-May-01 17:19N 36°31' E 001°19'0 0.0
2015-May-01 16:25N 36°31' E 001°19'0 0.0
2015-May-01 15:31N 36°31' E 001°19'0 0.0
2015-May-01 14:24N 36°31' E 001°19'0 0.0
2015-May-01 13:24N 36°31' E 001°19'0 0.0
2015-May-01 12:30N 36°31' E 001°19'0 0.0
2015-May-01 11:24N 36°31' E 001°19'0 0.0
2015-May-01 10:30N 36°31' E 001°19'0 0.1
2015-May-01 09:25N 36°32' E 001°19'0 0.0
2015-May-01 08:31N 36°32' E 001°19'0 0.0
2015-May-01 07:31N 36°32' E 001°19'0 0.0
2015-May-01 06:25N 36°32' E 001°19'0 0.0
2015-May-01 05:31N 36°32' E 001°19'0 0.0
2015-May-01 04:19N 36°32' E 001°19'0 0.0
2015-May-01 03:18N 36°32' E 001°19'0 0.0
2015-May-01 02:18N 36°32' E 001°19'0 0.0
2015-May-01 01:18N 36°32' E 001°19'0 0.0
2015-Apr-30 23:18N 36°32' E 001°19'0 0.0
2015-Apr-30 19:19N 36°32' E 001°19'0 0.0
2015-Apr-30 18:31N 36°32' E 001°19'0 0.0
2015-Apr-30 17:19N 36°32' E 001°19'0 0.0
2015-Apr-30 16:25N 36°32' E 001°19'0 0.0
2015-Apr-30 15:12N 36°32' E 001°19'0 0.0
2015-Apr-30 14:24N 36°32' E 001°19'1 0.1
2015-Apr-30 00:17N 36°31' E 001°18'0 0.0
2015-Apr-29 22:29N 36°31' E 001°18'0 0.0
2015-Apr-29 21:23N 36°31' E 001°18'0 0.0
2015-Apr-29 20:29N 36°31' E 001°18'0 0.0
2015-Apr-29 19:11N 36°31' E 001°18'0 0.0
2015-Apr-29 18:29N 36°31' E 001°18'0 0.0
2015-Apr-29 17:30N 36°31' E 001°18'0 0.0
2015-Apr-29 16:11N 36°31' E 001°18'3 4.7
2015-Apr-29 15:33N 36°34' E 001°17'1010.0
2015-Apr-29 14:33N 36°44' E 001°13'10 9.7
2015-Apr-29 13:33N 36°53' E 001°09'10 9.5
2015-Apr-29 12:33N 37°02' E 001°07'2210.4
2015-Apr-29 10:29N 37°23' E 000°60'9 9.4
2015-Apr-29 09:31N 37°32' E 000°57'28 9.5
2015-Apr-29 06:31N 37°59' E 000°47'12 9.9
2015-Apr-29 05:17N 38°11' E 000°43'27 9.4
2015-Apr-29 02:24N 38°37' E 000°33'  

Dump ship's entire track history